createdAt,value
2019-04-25T00:02:25.644Z,8.24
2019-04-25T00:04:54.968Z,8.20
2019-04-25T00:07:24.768Z,8.11
2019-04-25T00:09:56.422Z,8.24
2019-04-25T00:12:25.831Z,8.35
2019-04-25T00:14:55.161Z,8.19
2019-04-25T00:17:25.416Z,8.27
2019-04-25T00:19:55.179Z,7.73
2019-04-25T00:22:42.552Z,7.39
2019-04-25T00:25:21.868Z,7.46
2019-04-25T00:27:51.640Z,7.59
2019-04-25T00:30:22.686Z,7.69
2019-04-25T00:32:52.026Z,7.76
2019-04-25T00:35:21.708Z,7.85
2019-04-25T00:37:52.512Z,7.87
2019-04-25T00:40:22.170Z,7.81
2019-04-25T00:42:53.459Z,7.69
2019-04-25T00:45:22.927Z,7.68
2019-04-25T00:47:52.913Z,7.80
2019-04-25T00:50:22.442Z,7.84
2019-04-25T00:52:52.547Z,7.64
2019-04-25T00:55:28.697Z,6.89
2019-04-25T00:57:57.550Z,6.76
2019-04-25T01:00:49.046Z,6.77
2019-04-25T01:03:23.850Z,7.01
2019-04-25T01:05:53.673Z,7.26
2019-04-25T01:08:24.613Z,6.83
2019-04-25T01:10:54.248Z,6.66
2019-04-25T01:13:23.922Z,6.57
2019-04-25T01:15:53.764Z,6.40
2019-04-25T01:18:25.127Z,6.22
2019-04-25T01:20:55.462Z,6.23
2019-04-25T01:23:25.085Z,6.22
2019-04-25T01:25:54.640Z,6.53
2019-04-25T01:28:24.488Z,6.70
2019-04-25T01:30:55.142Z,6.68
2019-04-25T01:33:25.615Z,6.74
2019-04-25T01:36:10.348Z,6.79
2019-04-25T01:38:47.301Z,6.84
2019-04-25T01:41:34.295Z,6.49
2019-04-25T01:44:11.064Z,5.94
2019-04-25T01:46:44.239Z,6.02
2019-04-25T01:49:13.998Z,6.01
2019-04-25T01:51:43.724Z,5.98
2019-04-25T01:54:14.120Z,6.09
2019-04-25T01:56:44.324Z,6.00
2019-04-25T01:59:15.222Z,6.25
2019-04-25T02:01:44.838Z,6.21
2019-04-25T02:04:14.191Z,6.03
2019-04-25T02:06:43.554Z,6.25
2019-04-25T02:09:14.174Z,6.22
2019-04-25T02:11:58.895Z,5.76
2019-04-25T02:14:28.807Z,5.75
2019-04-25T02:16:58.444Z,5.71
2019-04-25T02:19:28.222Z,5.44
2019-04-25T02:21:57.863Z,5.25
2019-04-25T02:24:27.416Z,4.96
2019-04-25T02:26:57.270Z,4.91
2019-04-25T02:29:26.799Z,4.98
2019-04-25T02:31:59.201Z,5.07
2019-04-25T02:34:27.972Z,5.25
2019-04-25T02:37:00.676Z,5.27
2019-04-25T02:39:28.565Z,5.27
2019-04-25T02:42:00.540Z,5.27
2019-04-25T02:44:29.558Z,5.28
2019-04-25T02:47:16.257Z,5.46
2019-04-25T02:50:10.383Z,5.61
2019-04-25T02:52:49.137Z,5.49
2019-04-25T02:55:30.732Z,5.70
2019-04-25T02:57:49.404Z,5.89
2019-04-25T03:00:24.891Z,6.10
2019-04-25T03:02:54.806Z,6.28
2019-04-25T03:05:25.569Z,6.23
2019-04-25T03:07:55.050Z,6.33
2019-04-25T03:10:26.754Z,6.44
2019-04-25T03:12:55.314Z,6.35
2019-04-25T03:15:24.999Z,6.35
2019-04-25T03:17:54.799Z,6.40
2019-04-25T03:20:55.963Z,6.14
2019-04-25T03:23:42.690Z,6.29
2019-04-25T03:26:13.537Z,5.44
2019-04-25T03:28:43.862Z,5.46
2019-04-25T03:31:21.209Z,5.45
2019-04-25T03:33:45.987Z,5.37
2019-04-25T03:36:16.950Z,5.41
2019-04-25T03:38:46.687Z,5.41
2019-04-25T03:41:16.058Z,5.64
2019-04-25T03:43:45.590Z,5.62
2019-04-25T03:46:15.014Z,5.59
2019-04-25T03:48:44.576Z,5.64
2019-04-25T03:51:15.682Z,5.50
2019-04-25T03:53:50.471Z,5.41
2019-04-25T03:56:19.796Z,5.34
2019-04-25T03:58:49.114Z,5.44
2019-04-25T04:01:18.477Z,5.22
2019-04-25T04:03:47.804Z,5.12
2019-04-25T04:06:17.128Z,5.08
2019-04-25T04:08:49.179Z,5.49
2019-04-25T04:11:18.504Z,5.72
2019-04-25T04:13:47.820Z,5.68
2019-04-25T04:16:20.078Z,5.60
2019-04-25T04:18:51.197Z,5.72
2019-04-25T04:21:45.776Z,5.72
2019-04-25T04:24:19.179Z,6.00
2019-04-25T04:27:07.949Z,6.34
2019-04-25T04:29:36.960Z,6.63
2019-04-25T04:32:06.929Z,6.86
2019-04-25T04:34:36.501Z,6.70
2019-04-25T04:37:05.840Z,6.73
2019-04-25T04:39:35.670Z,6.63
2019-04-25T04:42:05.508Z,6.91
2019-04-25T04:44:34.875Z,6.90
2019-04-25T04:47:04.216Z,6.99
2019-04-25T04:49:34.125Z,7.01
2019-04-25T04:52:04.477Z,7.04
2019-04-25T04:54:36.123Z,7.15
2019-04-25T04:57:18.737Z,7.28
2019-04-25T04:59:36.427Z,7.73
2019-04-25T05:02:17.376Z,7.83
2019-04-25T05:05:08.495Z,8.06
2019-04-25T05:07:56.612Z,7.88
2019-04-25T05:10:26.070Z,8.15
2019-04-25T05:12:55.416Z,7.98
2019-04-25T05:15:24.987Z,8.15
2019-04-25T05:17:54.384Z,8.52
2019-04-25T05:20:24.363Z,8.54
2019-04-25T05:22:54.953Z,8.80
2019-04-25T05:25:24.850Z,9.08
2019-04-25T05:28:00.722Z,9.16
2019-04-25T05:30:34.681Z,8.97
2019-04-25T05:33:04.065Z,9.21
2019-04-25T05:35:33.699Z,9.62
2019-04-25T05:38:03.467Z,10.01
2019-04-25T05:40:34.630Z,10.22
2019-04-25T05:43:13.370Z,10.35
2019-04-25T05:45:44.019Z,10.44
2019-04-25T05:48:15.159Z,10.54
2019-04-25T05:50:44.835Z,10.80
2019-04-25T05:53:14.223Z,10.91
2019-04-25T05:55:44.152Z,11.24
2019-04-25T05:58:13.883Z,11.32
2019-04-25T06:00:44.165Z,10.66
2019-04-25T06:03:13.755Z,10.82
2019-04-25T06:05:43.488Z,10.87
2019-04-25T06:08:14.252Z,11.24
2019-04-25T06:11:01.528Z,11.68
2019-04-25T06:13:35.449Z,11.67
2019-04-25T06:16:16.260Z,11.89
2019-04-25T06:19:14.313Z,11.88
2019-04-25T06:21:38.513Z,12.46
2019-04-25T06:24:27.400Z,13.07
2019-04-25T06:27:16.190Z,13.35
2019-04-25T06:29:57.716Z,13.15
2019-04-25T06:32:18.639Z,13.31
2019-04-25T06:34:48.027Z,13.17
2019-04-25T06:37:17.342Z,12.98
2019-04-25T06:39:46.683Z,13.23
2019-04-25T06:42:16.045Z,13.43
2019-04-25T06:45:03.589Z,13.63
2019-04-25T06:48:00.035Z,13.60
2019-04-25T06:50:29.354Z,13.84
2019-04-25T06:52:58.691Z,13.74
2019-04-25T06:55:28.493Z,13.78
2019-04-25T06:58:09.146Z,13.69
2019-04-25T07:00:30.076Z,14.13
2019-04-25T07:03:00.309Z,14.58
2019-04-25T07:05:35.844Z,14.90
2019-04-25T07:08:00.578Z,15.12
2019-04-25T07:10:30.130Z,15.37
2019-04-25T07:12:59.458Z,15.32
2019-04-25T07:15:29.576Z,15.70
2019-04-25T07:17:59.412Z,16.16
2019-04-25T07:20:28.840Z,16.35
2019-04-25T07:22:58.168Z,16.48
2019-04-25T07:25:30.320Z,15.76
2019-04-25T07:28:29.719Z,15.29
2019-04-25T07:31:26.869Z,15.26
2019-04-25T07:33:59.927Z,15.29
2019-04-25T07:36:29.256Z,15.72
2019-04-25T07:39:09.787Z,16.37
2019-04-25T07:41:30.075Z,16.84
2019-04-25T07:43:59.400Z,16.64
2019-04-25T07:46:29.752Z,16.94
2019-04-25T07:48:59.283Z,17.09
2019-04-25T07:51:28.709Z,17.87
2019-04-25T07:53:58.069Z,17.89
2019-04-25T07:56:27.779Z,16.93
2019-04-25T07:58:57.362Z,17.05
2019-04-25T08:01:28.137Z,17.18
2019-04-25T08:03:58.107Z,17.28
2019-04-25T08:06:27.746Z,17.63
2019-04-25T08:08:57.818Z,18.02
2019-04-25T08:11:28.041Z,17.84
2019-04-25T08:14:19.165Z,18.52
2019-04-25T08:16:53.766Z,18.56
2019-04-25T08:19:25.198Z,18.24
2019-04-25T08:21:55.468Z,18.25
2019-04-25T08:24:25.105Z,17.93
2019-04-25T08:26:54.522Z,18.50
2019-04-25T08:29:25.427Z,19.18
2019-04-25T08:31:55.459Z,18.88
2019-04-25T08:34:24.830Z,19.02
2019-04-25T08:36:54.378Z,19.25
2019-04-25T08:39:24.315Z,19.44
2019-04-25T08:41:54.120Z,19.69
2019-04-25T08:44:24.232Z,19.50
2019-04-25T08:46:54.335Z,20.44
2019-04-25T08:49:40.069Z,20.24
2019-04-25T08:52:10.279Z,20.43
2019-04-25T08:54:52.208Z,20.56
2019-04-25T08:57:40.093Z,20.43
2019-04-25T09:00:24.171Z,20.71
2019-04-25T09:03:00.220Z,20.69
2019-04-25T09:05:38.811Z,19.65
2019-04-25T09:08:08.636Z,20.04
2019-04-25T09:10:39.999Z,20.65
2019-04-25T09:13:09.377Z,20.91
2019-04-25T09:15:39.448Z,21.16
2019-04-25T09:18:08.967Z,21.20
2019-04-25T09:20:40.864Z,21.25
2019-04-25T09:23:09.694Z,20.85
2019-04-25T09:25:39.029Z,20.34
2019-04-25T09:28:08.809Z,20.98
2019-04-25T09:30:38.371Z,21.30
2019-04-25T09:33:08.057Z,21.88
2019-04-25T09:35:37.807Z,21.32
2019-04-25T09:38:07.237Z,20.94
2019-04-25T09:40:37.238Z,21.31
2019-04-25T09:43:06.903Z,22.10
2019-04-25T09:46:01.096Z,22.40
2019-04-25T09:48:42.383Z,23.00
2019-04-25T09:51:20.105Z,23.29
2019-04-25T09:53:54.141Z,23.64
2019-04-25T09:56:36.625Z,22.94
2019-04-25T09:59:11.453Z,22.61
2019-04-25T10:01:43.970Z,23.29
2019-04-25T10:04:13.475Z,23.14
2019-04-25T10:06:44.339Z,23.05
2019-04-25T10:09:15.681Z,23.80
2019-04-25T10:11:47.700Z,24.31
2019-04-25T10:14:38.949Z,24.71
2019-04-25T10:17:09.049Z,24.98
2019-04-25T10:19:39.118Z,25.03
2019-04-25T10:22:08.885Z,24.87
2019-04-25T10:24:39.646Z,23.94
2019-04-25T10:27:09.237Z,24.51
2019-04-25T10:29:48.334Z,24.73
2019-04-25T10:32:15.048Z,24.56
2019-04-25T10:34:46.057Z,25.04
2019-04-25T10:37:16.581Z,24.66
2019-04-25T10:39:46.314Z,24.83
2019-04-25T10:42:15.947Z,24.74
2019-04-25T10:44:46.835Z,24.58
2019-04-25T10:47:16.500Z,24.61
2019-04-25T10:49:45.945Z,24.59
2019-04-25T10:52:15.796Z,24.36
2019-04-25T10:54:45.820Z,24.76
2019-04-25T10:57:16.321Z,24.76
2019-04-25T10:59:56.100Z,24.98
2019-04-25T11:02:16.868Z,24.75
2019-04-25T11:04:54.825Z,24.68
2019-04-25T11:07:27.349Z,24.62
2019-04-25T11:09:56.635Z,25.06
2019-04-25T11:12:26.151Z,25.08
2019-04-25T11:14:56.297Z,25.03
2019-04-25T11:17:25.847Z,25.18
2019-04-25T11:19:55.554Z,25.14
2019-04-25T11:22:25.280Z,25.16
2019-04-25T11:24:54.616Z,25.21
2019-04-25T11:27:24.536Z,25.24
2019-04-25T11:30:08.228Z,25.36
2019-04-25T11:32:27.400Z,25.19
2019-04-25T11:34:57.353Z,24.40
2019-04-25T11:37:28.419Z,24.67
2019-04-25T11:40:07.026Z,24.16
2019-04-25T11:42:36.540Z,24.34
2019-04-25T11:45:07.379Z,24.75
2019-04-25T11:47:39.469Z,24.68
2019-04-25T11:50:08.950Z,24.68
2019-04-25T11:52:38.679Z,25.16
2019-04-25T11:55:08.703Z,24.88
2019-04-25T11:57:38.217Z,25.11
2019-04-25T12:00:07.748Z,25.61
2019-04-25T12:02:37.190Z,25.75
2019-04-25T12:05:06.659Z,25.41
2019-04-25T12:07:36.016Z,25.19
2019-04-25T12:10:06.608Z,24.57
2019-04-25T12:12:37.282Z,24.84
2019-04-25T12:15:07.299Z,25.26
2019-04-25T12:17:36.629Z,25.33
2019-04-25T12:20:06.311Z,24.87
2019-04-25T12:22:38.535Z,24.98
2019-04-25T12:25:07.973Z,24.93
2019-04-25T12:27:37.332Z,24.06
2019-04-25T12:30:07.569Z,24.04
2019-04-25T12:32:36.891Z,23.76
2019-04-25T12:35:07.741Z,23.67
2019-04-25T12:37:37.466Z,23.18
2019-04-25T12:40:08.259Z,23.22
2019-04-25T12:42:37.607Z,23.59
2019-04-25T12:45:17.250Z,23.83
2019-04-25T12:47:47.787Z,23.92
2019-04-25T12:50:18.776Z,23.98
2019-04-25T12:52:48.903Z,23.33
2019-04-25T12:55:19.012Z,23.47
2019-04-25T12:57:49.441Z,23.44
2019-04-25T13:00:24.266Z,23.56
2019-04-25T13:02:54.543Z,23.54
2019-04-25T13:05:24.422Z,23.64
2019-04-25T13:07:57.028Z,23.49
2019-04-25T13:10:25.743Z,23.70
2019-04-25T13:12:55.452Z,23.73
2019-04-25T13:15:26.983Z,23.80
2019-04-25T13:17:56.879Z,24.04
2019-04-25T13:20:26.287Z,23.94
2019-04-25T13:22:55.851Z,24.09
2019-04-25T13:25:25.500Z,23.98
2019-04-25T13:28:20.060Z,24.07
2019-04-25T13:31:12.152Z,23.98
2019-04-25T13:33:59.915Z,24.01
2019-04-25T13:36:29.339Z,23.98
2019-04-25T13:38:58.681Z,24.38
2019-04-25T13:41:28.780Z,24.36
2019-04-25T13:43:58.895Z,23.99
2019-04-25T13:46:28.350Z,23.90
2019-04-25T13:48:57.811Z,24.33
2019-04-25T13:51:28.318Z,24.51
2019-04-25T13:53:57.971Z,24.22
2019-04-25T13:56:28.477Z,24.01
2019-04-25T13:58:58.326Z,24.35
2019-04-25T14:01:27.761Z,24.57
2019-04-25T14:03:57.125Z,24.83
2019-04-25T14:06:28.356Z,25.05
2019-04-25T14:08:57.995Z,25.36
2019-04-25T14:11:27.996Z,25.54
2019-04-25T14:13:57.381Z,25.91
2019-04-25T14:16:44.304Z,25.87
2019-04-25T14:19:31.398Z,25.47
2019-04-25T14:22:04.299Z,25.03
2019-04-25T14:24:35.693Z,25.23
2019-04-25T14:27:06.202Z,25.18
2019-04-25T14:29:35.770Z,25.12
2019-04-25T14:32:07.264Z,24.94
2019-04-25T14:34:36.706Z,24.53
2019-04-25T14:37:06.139Z,24.50
2019-04-25T14:39:36.024Z,24.01
2019-04-25T14:42:05.501Z,24.04
2019-04-25T14:44:34.961Z,23.70
2019-04-25T14:47:05.430Z,23.39
2019-04-25T14:49:34.746Z,23.31
2019-04-25T14:52:04.540Z,23.03
2019-04-25T14:54:39.927Z,23.05
2019-04-25T14:57:13.862Z,23.10
2019-04-25T14:59:43.197Z,22.93
2019-04-25T15:02:12.959Z,22.80
2019-04-25T15:04:42.710Z,22.88
2019-04-25T15:07:12.041Z,22.77
2019-04-25T15:09:41.515Z,22.82
2019-04-25T15:12:11.187Z,22.69
2019-04-25T15:14:41.311Z,22.88
2019-04-25T15:17:11.249Z,22.92
2019-04-25T15:19:40.670Z,23.10
2019-04-25T15:22:10.674Z,23.15
2019-04-25T15:24:42.902Z,22.93
2019-04-25T15:27:12.264Z,22.85
2019-04-25T15:29:42.579Z,22.89
2019-04-25T15:32:14.816Z,22.89
2019-04-25T15:34:50.490Z,22.60
2019-04-25T15:37:38.691Z,22.26
2019-04-25T15:40:17.787Z,22.21
2019-04-25T15:42:59.031Z,22.03
2019-04-25T15:46:05.502Z,21.65
2019-04-25T15:48:34.818Z,21.73
2019-04-25T15:51:04.259Z,21.58
2019-04-25T15:53:33.665Z,21.58
2019-04-25T15:56:03.371Z,21.31
2019-04-25T15:58:32.697Z,21.21
2019-04-25T16:01:02.876Z,21.19
2019-04-25T16:03:32.956Z,21.20
2019-04-25T16:06:02.865Z,21.24
2019-04-25T16:08:32.999Z,21.18
2019-04-25T16:11:02.750Z,21.15
2019-04-25T16:13:32.269Z,20.99
2019-04-25T16:16:02.612Z,21.02
2019-04-25T16:18:31.929Z,20.87
2019-04-25T16:21:01.631Z,20.73
2019-04-25T16:23:32.130Z,20.73
2019-04-25T16:26:01.743Z,20.61
2019-04-25T16:28:31.746Z,20.59
2019-04-25T16:31:04.265Z,20.36
2019-04-25T16:33:35.565Z,20.10
2019-04-25T16:36:05.228Z,19.91
2019-04-25T16:38:35.393Z,20.03
2019-04-25T16:41:07.315Z,19.85
2019-04-25T16:43:41.030Z,19.84
2019-04-25T16:46:16.547Z,19.68
2019-04-25T16:48:46.270Z,19.48
2019-04-25T16:51:17.366Z,19.42
2019-04-25T16:53:46.743Z,19.41
2019-04-25T16:56:16.338Z,19.22
2019-04-25T16:58:45.668Z,19.09
2019-04-25T17:01:16.023Z,19.03
2019-04-25T17:03:45.522Z,19.05
2019-04-25T17:06:15.243Z,18.80
2019-04-25T17:08:44.716Z,18.67
2019-04-25T17:11:14.980Z,18.57
2019-04-25T17:13:56.236Z,18.55
2019-04-25T17:17:00.027Z,18.53
2019-04-25T17:19:47.291Z,18.33
2019-04-25T17:22:16.752Z,18.13
2019-04-25T17:24:46.100Z,18.03
2019-04-25T17:27:15.540Z,17.98
2019-04-25T17:29:44.914Z,17.89
2019-04-25T17:32:46.819Z,17.75
2019-04-25T17:35:26.230Z,17.59
2019-04-25T17:38:03.744Z,17.47
2019-04-25T17:40:33.880Z,17.40
2019-04-25T17:43:10.838Z,17.28
2019-04-25T17:45:37.936Z,17.37
2019-04-25T17:48:07.259Z,17.25
2019-04-25T17:50:37.510Z,17.20
2019-04-25T17:53:07.219Z,17.03
2019-04-25T17:55:37.381Z,17.07
2019-04-25T17:58:06.831Z,17.09
2019-04-25T18:00:38.288Z,16.87
2019-04-25T18:03:09.456Z,16.83
2019-04-25T18:05:39.725Z,16.63
2019-04-25T18:08:09.258Z,16.62
2019-04-25T18:10:38.600Z,16.65
2019-04-25T18:13:09.475Z,16.55
2019-04-25T18:15:49.462Z,16.42
2019-04-25T18:18:31.567Z,16.35
2019-04-25T18:21:00.935Z,16.25
2019-04-25T18:23:55.167Z,16.14
2019-04-25T18:26:35.241Z,16.04
2019-04-25T18:29:08.585Z,15.97
2019-04-25T18:31:37.916Z,15.81
2019-04-25T18:34:15.121Z,15.83
2019-04-25T18:36:54.555Z,15.82
2019-04-25T18:39:34.368Z,15.80
2019-04-25T18:42:31.811Z,15.72
2019-04-25T18:45:03.936Z,15.77
2019-04-25T18:47:33.252Z,15.79
2019-04-25T18:50:02.666Z,15.77
2019-04-25T18:52:53.710Z,15.89
2019-04-25T18:55:29.583Z,15.95
2019-04-25T18:58:16.683Z,15.78
2019-04-25T19:00:54.685Z,15.87
2019-04-25T19:03:58.242Z,15.84
2019-04-25T19:06:27.968Z,15.90
2019-04-25T19:08:57.306Z,15.72
2019-04-25T19:11:26.878Z,15.64
2019-04-25T19:13:56.438Z,15.64
2019-04-25T19:16:25.780Z,15.60
2019-04-25T19:18:56.175Z,15.72
2019-04-25T19:21:25.536Z,15.69
2019-04-25T19:23:54.859Z,15.67
2019-04-25T19:26:24.625Z,15.80
2019-04-25T19:28:54.131Z,15.77
2019-04-25T19:31:23.459Z,15.46
2019-04-25T19:33:53.405Z,15.51
2019-04-25T19:36:23.007Z,15.55
2019-04-25T19:38:52.566Z,15.46
2019-04-25T19:41:37.351Z,15.47
2019-04-25T19:44:12.636Z,15.55
2019-04-25T19:46:44.830Z,15.68
2019-04-25T19:49:14.816Z,15.82
2019-04-25T19:51:45.113Z,15.68
2019-04-25T19:54:14.591Z,15.54
2019-04-25T19:56:44.016Z,15.36
2019-04-25T19:59:13.567Z,15.33
2019-04-25T20:01:44.049Z,15.24
2019-04-25T20:04:35.615Z,15.17
2019-04-25T20:07:32.925Z,15.03
2019-04-25T20:10:36.421Z,15.04
2019-04-25T20:13:05.823Z,14.94
2019-04-25T20:15:35.192Z,14.91
2019-04-25T20:18:04.911Z,14.85
2019-04-25T20:20:34.756Z,14.72
2019-04-25T20:23:04.084Z,14.63
2019-04-25T20:25:33.574Z,14.53
2019-04-25T20:28:03.851Z,14.40
2019-04-25T20:30:33.178Z,14.45
2019-04-25T20:33:02.605Z,14.34
2019-04-25T20:35:32.007Z,14.08
2019-04-25T20:38:01.344Z,13.58
2019-04-25T20:40:30.772Z,13.39
2019-04-25T20:43:00.191Z,13.67
2019-04-25T20:45:29.977Z,13.57
2019-04-25T20:47:59.811Z,13.49
2019-04-25T20:50:29.172Z,13.42
2019-04-25T20:53:00.799Z,13.52
2019-04-25T20:55:30.476Z,13.64
2019-04-25T20:57:59.836Z,13.62
2019-04-25T21:00:51.615Z,13.69
2019-04-25T21:03:21.464Z,13.54
2019-04-25T21:05:53.105Z,13.53
2019-04-25T21:08:24.516Z,12.96
2019-04-25T21:10:54.140Z,13.23
2019-04-25T21:13:34.687Z,12.91
2019-04-25T21:16:29.642Z,12.80
2019-04-25T21:19:06.235Z,12.70
2019-04-25T21:21:35.647Z,12.79
2019-04-25T21:24:05.308Z,12.18
2019-04-25T21:26:34.791Z,11.82
2019-04-25T21:29:04.219Z,11.82
2019-04-25T21:31:33.558Z,11.87
2019-04-25T21:34:02.968Z,12.12
2019-04-25T21:36:32.627Z,12.19
2019-04-25T21:39:02.355Z,12.32
2019-04-25T21:41:48.080Z,12.08
2019-04-25T21:44:18.059Z,12.02
2019-04-25T21:46:47.467Z,12.22
2019-04-25T21:49:17.720Z,12.22
2019-04-25T21:51:47.039Z,12.06
2019-04-25T21:54:16.856Z,11.86
2019-04-25T21:56:46.728Z,11.81
2019-04-25T21:59:16.566Z,11.82
2019-04-25T22:01:46.323Z,11.49
2019-04-25T22:04:16.063Z,11.25
2019-04-25T22:06:45.684Z,11.23
2019-04-25T22:09:17.649Z,11.29
2019-04-25T22:11:47.978Z,11.30
2019-04-25T22:14:17.959Z,11.48
2019-04-25T22:16:48.347Z,11.45
2019-04-25T22:19:18.327Z,11.42
2019-04-25T22:21:48.347Z,11.38
2019-04-25T22:24:17.733Z,11.44
2019-04-25T22:26:48.936Z,11.35
2019-04-25T22:29:18.345Z,10.86
2019-04-25T22:31:56.910Z,10.80
2019-04-25T22:34:32.554Z,10.63
2019-04-25T22:37:02.138Z,10.80
2019-04-25T22:39:31.620Z,10.71
2019-04-25T22:42:01.902Z,10.66
2019-04-25T22:44:31.718Z,10.60
2019-04-25T22:47:02.322Z,10.42
2019-04-25T22:49:31.777Z,10.45
2019-04-25T22:52:01.774Z,10.21
2019-04-25T22:54:32.385Z,9.72
2019-04-25T22:57:02.524Z,9.57
2019-04-25T22:59:32.543Z,9.79
2019-04-25T23:02:37.312Z,9.97
2019-04-25T23:05:28.955Z,9.96
2019-04-25T23:07:58.775Z,9.85
2019-04-25T23:10:28.587Z,9.70
2019-04-25T23:12:58.367Z,9.79
2019-04-25T23:15:27.686Z,9.76
2019-04-25T23:17:57.407Z,9.70
2019-04-25T23:20:26.793Z,9.28
2019-04-25T23:22:57.069Z,9.13
2019-04-25T23:25:32.151Z,9.37
2019-04-25T23:28:12.311Z,9.47
2019-04-25T23:30:59.975Z,9.65
2019-04-25T23:33:29.303Z,9.82
2019-04-25T23:35:59.403Z,9.92
2019-04-25T23:38:28.792Z,9.99
2019-04-25T23:40:58.112Z,10.02
2019-04-25T23:43:27.408Z,9.40
2019-04-25T23:45:57.935Z,8.85
2019-04-25T23:48:27.559Z,8.68
2019-04-25T23:50:56.869Z,8.60
2019-04-25T23:53:26.435Z,8.71
2019-04-25T23:55:55.745Z,8.93
2019-04-25T23:58:25.082Z,9.04
